sensor_id;sensor_type;location;lat;lon;timestamp;P1;durP1;ratioP1;P2;durP2;ratioP2
13698;SDS011;6921;53.642;9.956;2023-04-25T00:01:36;12.10;;;6.60;;
13698;SDS011;6921;53.642;9.956;2023-04-25T00:03:40;9.77;;;5.87;;
13698;SDS011;6921;53.642;9.956;2023-04-25T00:05:45;13.87;;;7.87;;
13698;SDS011;6921;53.642;9.956;2023-04-25T00:07:49;16.80;;;7.73;;
13698;SDS011;6921;53.642;9.956;2023-04-25T00:09:52;11.73;;;7.00;;
13698;SDS011;6921;53.642;9.956;2023-04-25T00:11:56;20.73;;;8.00;;
13698;SDS011;6921;53.642;9.956;2023-04-25T00:14:00;13.53;;;6.93;;
13698;SDS011;6921;53.642;9.956;2023-04-25T00:16:04;18.80;;;6.27;;
13698;SDS011;6921;53.642;9.956;2023-04-25T00:18:08;18.90;;;6.80;;
13698;SDS011;6921;53.642;9.956;2023-04-25T00:20:12;18.13;;;6.20;;
13698;SDS011;6921;53.642;9.956;2023-04-25T00:22:17;16.93;;;6.13;;
13698;SDS011;6921;53.642;9.956;2023-04-25T00:24:20;15.40;;;5.50;;
13698;SDS011;6921;53.642;9.956;2023-04-25T00:26:24;15.60;;;5.73;;
13698;SDS011;6921;53.642;9.956;2023-04-25T00:28:27;16.30;;;5.80;;
13698;SDS011;6921;53.642;9.956;2023-04-25T00:30:31;11.43;;;5.57;;
13698;SDS011;6921;53.642;9.956;2023-04-25T00:32:34;21.97;;;6.10;;
13698;SDS011;6921;53.642;9.956;2023-04-25T00:34:38;21.97;;;5.40;;
13698;SDS011;6921;53.642;9.956;2023-04-25T00:36:41;19.70;;;5.20;;
13698;SDS011;6921;53.642;9.956;2023-04-25T00:38:47;13.83;;;5.23;;
13698;SDS011;6921;53.642;9.956;2023-04-25T00:40:53;18.07;;;4.93;;
13698;SDS011;6921;53.642;9.956;2023-04-25T00:42:58;16.60;;;4.60;;
13698;SDS011;6921;53.642;9.956;2023-04-25T00:45:02;17.23;;;4.90;;
13698;SDS011;6921;53.642;9.956;2023-04-25T00:47:08;18.03;;;5.03;;
13698;SDS011;6921;53.642;9.956;2023-04-25T00:49:12;23.63;;;5.50;;
13698;SDS011;6921;53.642;9.956;2023-04-25T00:51:19;19.03;;;5.20;;
13698;SDS011;6921;53.642;9.956;2023-04-25T00:53:23;22.03;;;4.83;;
13698;SDS011;6921;53.642;9.956;2023-04-25T00:55:29;23.33;;;5.27;;
13698;SDS011;6921;53.642;9.956;2023-04-25T00:57:34;23.33;;;5.33;;
13698;SDS011;6921;53.642;9.956;2023-04-25T00:59:37;27.77;;;4.97;;
13698;SDS011;6921;53.642;9.956;2023-04-25T01:01:41;23.77;;;4.50;;
13698;SDS011;6921;53.642;9.956;2023-04-25T01:03:45;11.13;;;4.63;;
13698;SDS011;6921;53.642;9.956;2023-04-25T01:05:51;17.77;;;4.93;;
13698;SDS011;6921;53.642;9.956;2023-04-25T01:07:55;21.93;;;5.60;;
13698;SDS011;6921;53.642;9.956;2023-04-25T01:09:58;15.33;;;4.03;;
13698;SDS011;6921;53.642;9.956;2023-04-25T01:12:04;17.87;;;4.33;;
13698;SDS011;6921;53.642;9.956;2023-04-25T01:14:07;20.03;;;5.37;;
13698;SDS011;6921;53.642;9.956;2023-04-25T01:16:11;14.13;;;4.87;;
13698;SDS011;6921;53.642;9.956;2023-04-25T01:18:14;17.80;;;4.67;;
13698;SDS011;6921;53.642;9.956;2023-04-25T01:20:18;20.07;;;5.10;;
13698;SDS011;6921;53.642;9.956;2023-04-25T01:22:26;16.90;;;5.50;;
13698;SDS011;6921;53.642;9.956;2023-04-25T01:24:30;15.03;;;4.73;;
13698;SDS011;6921;53.642;9.956;2023-04-25T01:26:34;19.57;;;4.97;;
13698;SDS011;6921;53.642;9.956;2023-04-25T01:31:54;16.40;;;4.13;;
13698;SDS011;6921;53.642;9.956;2023-04-25T01:33:59;17.33;;;4.57;;
13698;SDS011;6921;53.642;9.956;2023-04-25T01:36:03;17.00;;;4.40;;
13698;SDS011;6921;53.642;9.956;2023-04-25T01:38:09;19.17;;;4.30;;
13698;SDS011;6921;53.642;9.956;2023-04-25T01:40:13;20.10;;;4.83;;
13698;SDS011;6921;53.642;9.956;2023-04-25T01:42:17;21.23;;;4.90;;
13698;SDS011;6921;53.642;9.956;2023-04-25T01:44:21;16.73;;;4.40;;
13698;SDS011;6921;53.642;9.956;2023-04-25T01:46:24;18.97;;;4.67;;
13698;SDS011;6921;53.642;9.956;2023-04-25T01:48:28;19.13;;;4.27;;
13698;SDS011;6921;53.642;9.956;2023-04-25T01:50:31;13.47;;;3.87;;
13698;SDS011;6921;53.642;9.956;2023-04-25T01:52:34;17.47;;;5.33;;
13698;SDS011;6921;53.642;9.956;2023-04-25T01:54:39;10.97;;;4.13;;
13698;SDS011;6921;53.642;9.956;2023-04-25T01:56:49;14.53;;;3.57;;
13698;SDS011;6921;53.642;9.956;2023-04-25T01:58:53;16.43;;;4.50;;
13698;SDS011;6921;53.642;9.956;2023-04-25T02:00:56;18.80;;;4.50;;
13698;SDS011;6921;53.642;9.956;2023-04-25T02:03:00;17.33;;;4.40;;
13698;SDS011;6921;53.642;9.956;2023-04-25T02:05:04;14.93;;;3.70;;
13698;SDS011;6921;53.642;9.956;2023-04-25T02:07:07;14.33;;;3.93;;
13698;SDS011;6921;53.642;9.956;2023-04-25T02:09:11;11.63;;;3.57;;
13698;SDS011;6921;53.642;9.956;2023-04-25T02:14:16;12.67;;;3.20;;
13698;SDS011;6921;53.642;9.956;2023-04-25T02:16:19;12.10;;;3.43;;
13698;SDS011;6921;53.642;9.956;2023-04-25T02:18:23;12.00;;;3.40;;
13698;SDS011;6921;53.642;9.956;2023-04-25T02:20:28;12.80;;;3.47;;
13698;SDS011;6921;53.642;9.956;2023-04-25T02:22:31;16.60;;;4.00;;
13698;SDS011;6921;53.642;9.956;2023-04-25T02:24:35;17.23;;;3.80;;
13698;SDS011;6921;53.642;9.956;2023-04-25T02:26:38;14.63;;;3.60;;
13698;SDS011;6921;53.642;9.956;2023-04-25T02:28:42;16.30;;;4.27;;
13698;SDS011;6921;53.642;9.956;2023-04-25T02:30:47;15.90;;;3.70;;
13698;SDS011;6921;53.642;9.956;2023-04-25T02:32:50;12.43;;;4.03;;
13698;SDS011;6921;53.642;9.956;2023-04-25T02:34:53;15.13;;;3.87;;
13698;SDS011;6921;53.642;9.956;2023-04-25T02:36:59;13.87;;;3.50;;
13698;SDS011;6921;53.642;9.956;2023-04-25T02:39:03;15.43;;;4.00;;
13698;SDS011;6921;53.642;9.956;2023-04-25T02:41:07;13.57;;;3.33;;
13698;SDS011;6921;53.642;9.956;2023-04-25T02:43:10;14.30;;;3.97;;
13698;SDS011;6921;53.642;9.956;2023-04-25T02:45:14;18.53;;;4.37;;
13698;SDS011;6921;53.642;9.956;2023-04-25T02:47:19;18.57;;;4.23;;
13698;SDS011;6921;53.642;9.956;2023-04-25T02:49:22;16.77;;;4.10;;
13698;SDS011;6921;53.642;9.956;2023-04-25T02:51:26;14.10;;;3.70;;
13698;SDS011;6921;53.642;9.956;2023-04-25T02:53:29;15.33;;;4.20;;
13698;SDS011;6921;53.642;9.956;2023-04-25T02:55:33;14.30;;;3.40;;
13698;SDS011;6921;53.642;9.956;2023-04-25T02:57:36;10.47;;;3.23;;
13698;SDS011;6921;53.642;9.956;2023-04-25T02:59:39;14.43;;;4.27;;
13698;SDS011;6921;53.642;9.956;2023-04-25T03:01:43;10.77;;;2.90;;
13698;SDS011;6921;53.642;9.956;2023-04-25T03:03:48;15.13;;;4.00;;
13698;SDS011;6921;53.642;9.956;2023-04-25T03:05:51;9.43;;;3.03;;
13698;SDS011;6921;53.642;9.956;2023-04-25T03:07:55;14.03;;;3.30;;
13698;SDS011;6921;53.642;9.956;2023-04-25T03:09:58;13.17;;;3.73;;
13698;SDS011;6921;53.642;9.956;2023-04-25T03:12:02;17.10;;;4.07;;
13698;SDS011;6921;53.642;9.956;2023-04-25T03:14:06;12.83;;;3.50;;
13698;SDS011;6921;53.642;9.956;2023-04-25T03:16:09;10.97;;;3.47;;
13698;SDS011;6921;53.642;9.956;2023-04-25T03:18:12;17.60;;;4.27;;
13698;SDS011;6921;53.642;9.956;2023-04-25T03:20:17;12.43;;;3.10;;
13698;SDS011;6921;53.642;9.956;2023-04-25T03:22:21;15.60;;;4.00;;
13698;SDS011;6921;53.642;9.956;2023-04-25T03:24:25;13.37;;;3.20;;
13698;SDS011;6921;53.642;9.956;2023-04-25T03:26:28;12.73;;;3.10;;
13698;SDS011;6921;53.642;9.956;2023-04-25T03:28:31;21.40;;;3.73;;
13698;SDS011;6921;53.642;9.956;2023-04-25T03:30:35;13.97;;;3.50;;
13698;SDS011;6921;53.642;9.956;2023-04-25T03:33:02;17.07;;;3.90;;
13698;SDS011;6921;53.642;9.956;2023-04-25T03:35:07;13.93;;;3.40;;
13698;SDS011;6921;53.642;9.956;2023-04-25T03:37:12;16.17;;;3.43;;
13698;SDS011;6921;53.642;9.956;2023-04-25T03:39:16;10.93;;;2.80;;
13698;SDS011;6921;53.642;9.956;2023-04-25T03:41:19;12.40;;;3.57;;
13698;SDS011;6921;53.642;9.956;2023-04-25T03:43:24;13.30;;;3.23;;
13698;SDS011;6921;53.642;9.956;2023-04-25T03:45:28;13.17;;;3.17;;
13698;SDS011;6921;53.642;9.956;2023-04-25T03:47:31;12.03;;;2.90;;
13698;SDS011;6921;53.642;9.956;2023-04-25T03:49:35;14.13;;;3.33;;
13698;SDS011;6921;53.642;9.956;2023-04-25T03:51:38;10.40;;;3.17;;
13698;SDS011;6921;53.642;9.956;2023-04-25T03:53:43;11.57;;;3.27;;
13698;SDS011;6921;53.642;9.956;2023-04-25T03:55:46;10.60;;;3.00;;
13698;SDS011;6921;53.642;9.956;2023-04-25T03:57:50;8.00;;;2.50;;
13698;SDS011;6921;53.642;9.956;2023-04-25T03:59:53;10.47;;;2.83;;
13698;SDS011;6921;53.642;9.956;2023-04-25T04:01:57;9.30;;;2.97;;
13698;SDS011;6921;53.642;9.956;2023-04-25T04:04:00;11.10;;;2.60;;
13698;SDS011;6921;53.642;9.956;2023-04-25T04:06:04;10.17;;;2.63;;
13698;SDS011;6921;53.642;9.956;2023-04-25T04:08:07;15.47;;;3.03;;
13698;SDS011;6921;53.642;9.956;2023-04-25T04:10:12;10.00;;;3.10;;
13698;SDS011;6921;53.642;9.956;2023-04-25T04:12:16;11.90;;;2.90;;
13698;SDS011;6921;53.642;9.956;2023-04-25T04:14:19;10.40;;;2.53;;
13698;SDS011;6921;53.642;9.956;2023-04-25T04:16:22;11.83;;;3.13;;
13698;SDS011;6921;53.642;9.956;2023-04-25T04:18:26;11.80;;;3.17;;
13698;SDS011;6921;53.642;9.956;2023-04-25T04:20:29;13.60;;;2.93;;
13698;SDS011;6921;53.642;9.956;2023-04-25T04:22:33;12.77;;;2.90;;
13698;SDS011;6921;53.642;9.956;2023-04-25T04:24:37;10.20;;;3.17;;
13698;SDS011;6921;53.642;9.956;2023-04-25T04:26:42;12.47;;;2.80;;
13698;SDS011;6921;53.642;9.956;2023-04-25T04:28:46;9.50;;;2.63;;
13698;SDS011;6921;53.642;9.956;2023-04-25T04:30:49;11.33;;;3.20;;
13698;SDS011;6921;53.642;9.956;2023-04-25T04:32:54;12.57;;;2.43;;
13698;SDS011;6921;53.642;9.956;2023-04-25T04:34:57;9.60;;;2.47;;
13698;SDS011;6921;53.642;9.956;2023-04-25T04:37:00;10.00;;;2.50;;
13698;SDS011;6921;53.642;9.956;2023-04-25T04:39:05;11.13;;;3.53;;
13698;SDS011;6921;53.642;9.956;2023-04-25T04:41:10;11.30;;;2.80;;
13698;SDS011;6921;53.642;9.956;2023-04-25T04:43:15;5.97;;;2.40;;
13698;SDS011;6921;53.642;9.956;2023-04-25T04:45:20;10.13;;;2.50;;
13698;SDS011;6921;53.642;9.956;2023-04-25T04:47:23;12.73;;;3.23;;
13698;SDS011;6921;53.642;9.956;2023-04-25T04:49:33;12.97;;;3.10;;
13698;SDS011;6921;53.642;9.956;2023-04-25T04:51:36;11.27;;;3.00;;
13698;SDS011;6921;53.642;9.956;2023-04-25T04:53:40;10.50;;;2.63;;
13698;SDS011;6921;53.642;9.956;2023-04-25T04:55:43;8.77;;;2.53;;
13698;SDS011;6921;53.642;9.956;2023-04-25T04:57:47;11.20;;;3.30;;
13698;SDS011;6921;53.642;9.956;2023-04-25T04:59:53;10.53;;;2.90;;
13698;SDS011;6921;53.642;9.956;2023-04-25T05:01:56;12.07;;;2.90;;
13698;SDS011;6921;53.642;9.956;2023-04-25T05:04:02;12.77;;;2.83;;
13698;SDS011;6921;53.642;9.956;2023-04-25T05:06:06;9.07;;;3.10;;
13698;SDS011;6921;53.642;9.956;2023-04-25T05:08:10;11.03;;;2.77;;
13698;SDS011;6921;53.642;9.956;2023-04-25T05:10:14;7.17;;;2.37;;
13698;SDS011;6921;53.642;9.956;2023-04-25T05:12:22;10.17;;;2.70;;
13698;SDS011;6921;53.642;9.956;2023-04-25T05:14:25;12.70;;;3.27;;
13698;SDS011;6921;53.642;9.956;2023-04-25T05:16:31;8.70;;;2.67;;
13698;SDS011;6921;53.642;9.956;2023-04-25T05:18:34;13.37;;;2.67;;
13698;SDS011;6921;53.642;9.956;2023-04-25T05:20:38;6.00;;;2.30;;
13698;SDS011;6921;53.642;9.956;2023-04-25T05:22:41;11.00;;;2.73;;
13698;SDS011;6921;53.642;9.956;2023-04-25T05:24:46;7.37;;;2.50;;
13698;SDS011;6921;53.642;9.956;2023-04-25T05:26:50;7.87;;;2.67;;
13698;SDS011;6921;53.642;9.956;2023-04-25T05:28:54;10.20;;;2.30;;
13698;SDS011;6921;53.642;9.956;2023-04-25T05:30:59;11.43;;;2.80;;
13698;SDS011;6921;53.642;9.956;2023-04-25T05:33:05;11.03;;;2.57;;
13698;SDS011;6921;53.642;9.956;2023-04-25T05:35:10;9.67;;;2.63;;
13698;SDS011;6921;53.642;9.956;2023-04-25T05:37:22;7.13;;;2.43;;
13698;SDS011;6921;53.642;9.956;2023-04-25T05:39:26;12.37;;;3.30;;
13698;SDS011;6921;53.642;9.956;2023-04-25T05:41:29;10.73;;;2.70;;
13698;SDS011;6921;53.642;9.956;2023-04-25T05:43:33;5.93;;;2.70;;
13698;SDS011;6921;53.642;9.956;2023-04-25T05:45:37;11.17;;;3.00;;
13698;SDS011;6921;53.642;9.956;2023-04-25T05:47:43;13.23;;;3.17;;
13698;SDS011;6921;53.642;9.956;2023-04-25T05:49:48;6.87;;;2.80;;
13698;SDS011;6921;53.642;9.956;2023-04-25T05:51:51;6.10;;;2.70;;
13698;SDS011;6921;53.642;9.956;2023-04-25T05:53:55;6.67;;;2.20;;
13698;SDS011;6921;53.642;9.956;2023-04-25T05:56:00;12.13;;;2.93;;
13698;SDS011;6921;53.642;9.956;2023-04-25T05:58:04;7.40;;;2.83;;
13698;SDS011;6921;53.642;9.956;2023-04-25T06:00:08;11.57;;;2.77;;
13698;SDS011;6921;53.642;9.956;2023-04-25T06:02:15;11.33;;;2.63;;
13698;SDS011;6921;53.642;9.956;2023-04-25T06:04:19;13.13;;;3.17;;
13698;SDS011;6921;53.642;9.956;2023-04-25T06:06:24;13.43;;;2.93;;
13698;SDS011;6921;53.642;9.956;2023-04-25T06:08:28;8.93;;;2.83;;
13698;SDS011;6921;53.642;9.956;2023-04-25T06:10:34;10.37;;;2.53;;
13698;SDS011;6921;53.642;9.956;2023-04-25T06:12:38;10.53;;;3.30;;
13698;SDS011;6921;53.642;9.956;2023-04-25T06:14:43;17.93;;;3.70;;
13698;SDS011;6921;53.642;9.956;2023-04-25T06:16:46;9.80;;;2.87;;
13698;SDS011;6921;53.642;9.956;2023-04-25T06:18:50;10.83;;;2.93;;
13698;SDS011;6921;53.642;9.956;2023-04-25T06:20:53;13.30;;;3.50;;
13698;SDS011;6921;53.642;9.956;2023-04-25T06:23:07;9.97;;;2.50;;
13698;SDS011;6921;53.642;9.956;2023-04-25T06:25:12;10.07;;;3.13;;
13698;SDS011;6921;53.642;9.956;2023-04-25T06:27:16;8.50;;;2.97;;
13698;SDS011;6921;53.642;9.956;2023-04-25T06:29:20;9.60;;;2.83;;
13698;SDS011;6921;53.642;9.956;2023-04-25T06:31:25;11.43;;;2.53;;
13698;SDS011;6921;53.642;9.956;2023-04-25T06:33:30;7.70;;;2.70;;
13698;SDS011;6921;53.642;9.956;2023-04-25T06:35:33;9.03;;;2.63;;
13698;SDS011;6921;53.642;9.956;2023-04-25T06:37:36;13.80;;;3.00;;
13698;SDS011;6921;53.642;9.956;2023-04-25T06:39:42;11.83;;;3.13;;
13698;SDS011;6921;53.642;9.956;2023-04-25T06:41:46;8.67;;;2.70;;
13698;SDS011;6921;53.642;9.956;2023-04-25T06:43:50;9.70;;;2.97;;
13698;SDS011;6921;53.642;9.956;2023-04-25T06:45:57;9.23;;;2.77;;
13698;SDS011;6921;53.642;9.956;2023-04-25T06:48:00;8.93;;;2.87;;
13698;SDS011;6921;53.642;9.956;2023-04-25T06:50:05;11.77;;;2.83;;
13698;SDS011;6921;53.642;9.956;2023-04-25T06:52:09;7.40;;;2.73;;
13698;SDS011;6921;53.642;9.956;2023-04-25T06:54:13;6.47;;;2.27;;
13698;SDS011;6921;53.642;9.956;2023-04-25T06:56:22;13.33;;;2.70;;
13698;SDS011;6921;53.642;9.956;2023-04-25T06:58:26;7.43;;;2.03;;
13698;SDS011;6921;53.642;9.956;2023-04-25T07:00:29;9.80;;;2.40;;
13698;SDS011;6921;53.642;9.956;2023-04-25T07:02:34;9.80;;;2.73;;
13698;SDS011;6921;53.642;9.956;2023-04-25T07:04:38;9.03;;;2.13;;
13698;SDS011;6921;53.642;9.956;2023-04-25T07:06:42;10.03;;;2.40;;
13698;SDS011;6921;53.642;9.956;2023-04-25T07:08:46;17.07;;;2.67;;
13698;SDS011;6921;53.642;9.956;2023-04-25T07:10:50;9.20;;;2.10;;
13698;SDS011;6921;53.642;9.956;2023-04-25T07:12:55;8.43;;;2.10;;
13698;SDS011;6921;53.642;9.956;2023-04-25T07:14:59;9.00;;;2.47;;
13698;SDS011;6921;53.642;9.956;2023-04-25T07:17:08;7.80;;;1.83;;
13698;SDS011;6921;53.642;9.956;2023-04-25T07:19:11;5.63;;;2.10;;
13698;SDS011;6921;53.642;9.956;2023-04-25T07:21:15;11.33;;;2.30;;
13698;SDS011;6921;53.642;9.956;2023-04-25T07:23:20;8.20;;;2.03;;
13698;SDS011;6921;53.642;9.956;2023-04-25T07:25:24;5.13;;;2.03;;
13698;SDS011;6921;53.642;9.956;2023-04-25T07:27:27;10.37;;;1.97;;
13698;SDS011;6921;53.642;9.956;2023-04-25T07:29:32;7.07;;;2.33;;
13698;SDS011;6921;53.642;9.956;2023-04-25T07:31:39;6.40;;;2.30;;
13698;SDS011;6921;53.642;9.956;2023-04-25T07:33:43;10.10;;;2.40;;
13698;SDS011;6921;53.642;9.956;2023-04-25T07:35:49;8.90;;;2.13;;
13698;SDS011;6921;53.642;9.956;2023-04-25T07:37:53;7.53;;;2.40;;
13698;SDS011;6921;53.642;9.956;2023-04-25T07:39:58;8.47;;;2.20;;
13698;SDS011;6921;53.642;9.956;2023-04-25T07:42:01;12.87;;;2.40;;
13698;SDS011;6921;53.642;9.956;2023-04-25T07:44:05;9.90;;;2.03;;
13698;SDS011;6921;53.642;9.956;2023-04-25T07:46:10;11.47;;;2.67;;
13698;SDS011;6921;53.642;9.956;2023-04-25T07:48:16;8.40;;;2.30;;
13698;SDS011;6921;53.642;9.956;2023-04-25T07:50:21;8.37;;;1.97;;
13698;SDS011;6921;53.642;9.956;2023-04-25T07:52:26;7.87;;;2.33;;
13698;SDS011;6921;53.642;9.956;2023-04-25T07:54:29;12.10;;;2.33;;
13698;SDS011;6921;53.642;9.956;2023-04-25T07:56:33;6.87;;;1.90;;
13698;SDS011;6921;53.642;9.956;2023-04-25T07:58:50;9.00;;;2.50;;
13698;SDS011;6921;53.642;9.956;2023-04-25T08:00:54;9.27;;;2.50;;
13698;SDS011;6921;53.642;9.956;2023-04-25T08:02:58;12.70;;;2.67;;
13698;SDS011;6921;53.642;9.956;2023-04-25T08:05:02;11.17;;;2.67;;
13698;SDS011;6921;53.642;9.956;2023-04-25T08:07:08;6.30;;;2.20;;
13698;SDS011;6921;53.642;9.956;2023-04-25T08:09:12;10.20;;;2.30;;
13698;SDS011;6921;53.642;9.956;2023-04-25T08:11:17;10.33;;;2.20;;
13698;SDS011;6921;53.642;9.956;2023-04-25T08:13:20;9.17;;;2.17;;
13698;SDS011;6921;53.642;9.956;2023-04-25T08:15:24;7.17;;;2.03;;
13698;SDS011;6921;53.642;9.956;2023-04-25T08:17:27;9.77;;;2.13;;
13698;SDS011;6921;53.642;9.956;2023-04-25T08:19:32;3.63;;;1.67;;
13698;SDS011;6921;53.642;9.956;2023-04-25T08:21:36;4.93;;;1.70;;
13698;SDS011;6921;53.642;9.956;2023-04-25T08:23:41;4.93;;;1.53;;
13698;SDS011;6921;53.642;9.956;2023-04-25T08:25:44;7.07;;;1.80;;
13698;SDS011;6921;53.642;9.956;2023-04-25T08:27:48;9.17;;;1.80;;
13698;SDS011;6921;53.642;9.956;2023-04-25T08:29:51;7.23;;;2.00;;
13698;SDS011;6921;53.642;9.956;2023-04-25T08:31:55;6.07;;;1.83;;
13698;SDS011;6921;53.642;9.956;2023-04-25T08:33:58;7.87;;;2.00;;
13698;SDS011;6921;53.642;9.956;2023-04-25T08:36:03;9.97;;;2.10;;
13698;SDS011;6921;53.642;9.956;2023-04-25T08:38:07;12.03;;;2.30;;
13698;SDS011;6921;53.642;9.956;2023-04-25T08:40:11;9.77;;;2.37;;
13698;SDS011;6921;53.642;9.956;2023-04-25T08:42:15;8.87;;;2.37;;
13698;SDS011;6921;53.642;9.956;2023-04-25T08:44:18;6.40;;;2.40;;
13698;SDS011;6921;53.642;9.956;2023-04-25T08:46:22;9.20;;;2.50;;
13698;SDS011;6921;53.642;9.956;2023-04-25T08:48:27;9.60;;;2.63;;
13698;SDS011;6921;53.642;9.956;2023-04-25T08:50:31;8.47;;;2.97;;
13698;SDS011;6921;53.642;9.956;2023-04-25T08:52:37;9.40;;;2.60;;
13698;SDS011;6921;53.642;9.956;2023-04-25T08:54:41;6.17;;;2.03;;
13698;SDS011;6921;53.642;9.956;2023-04-25T08:56:45;11.50;;;2.60;;
13698;SDS011;6921;53.642;9.956;2023-04-25T08:58:50;10.90;;;2.67;;
13698;SDS011;6921;53.642;9.956;2023-04-25T09:00:55;9.00;;;2.47;;
13698;SDS011;6921;53.642;9.956;2023-04-25T09:02:58;9.93;;;2.23;;
13698;SDS011;6921;53.642;9.956;2023-04-25T09:05:02;8.33;;;2.20;;
13698;SDS011;6921;53.642;9.956;2023-04-25T09:07:06;7.10;;;2.17;;
13698;SDS011;6921;53.642;9.956;2023-04-25T09:09:12;11.97;;;2.27;;
13698;SDS011;6921;53.642;9.956;2023-04-25T09:11:15;9.27;;;2.10;;
13698;SDS011;6921;53.642;9.956;2023-04-25T09:13:24;4.30;;;1.50;;
13698;SDS011;6921;53.642;9.956;2023-04-25T09:15:28;8.70;;;1.90;;
13698;SDS011;6921;53.642;9.956;2023-04-25T09:17:31;5.03;;;1.93;;
13698;SDS011;6921;53.642;9.956;2023-04-25T09:19:35;7.03;;;1.57;;
13698;SDS011;6921;53.642;9.956;2023-04-25T09:21:42;8.40;;;1.83;;
13698;SDS011;6921;53.642;9.956;2023-04-25T09:23:47;3.97;;;1.83;;
13698;SDS011;6921;53.642;9.956;2023-04-25T09:25:53;6.83;;;1.90;;
13698;SDS011;6921;53.642;9.956;2023-04-25T09:27:56;4.53;;;1.93;;
13698;SDS011;6921;53.642;9.956;2023-04-25T09:30:00;9.83;;;1.80;;
13698;SDS011;6921;53.642;9.956;2023-04-25T09:32:10;6.20;;;1.93;;
13698;SDS011;6921;53.642;9.956;2023-04-25T09:34:14;8.87;;;1.70;;
13698;SDS011;6921;53.642;9.956;2023-04-25T09:36:18;10.60;;;2.10;;
13698;SDS011;6921;53.642;9.956;2023-04-25T09:38:29;7.47;;;1.60;;
13698;SDS011;6921;53.642;9.956;2023-04-25T09:40:33;8.33;;;1.80;;
13698;SDS011;6921;53.642;9.956;2023-04-25T09:42:40;4.23;;;1.77;;
13698;SDS011;6921;53.642;9.956;2023-04-25T09:44:44;5.30;;;1.67;;
13698;SDS011;6921;53.642;9.956;2023-04-25T09:46:49;6.40;;;2.00;;
13698;SDS011;6921;53.642;9.956;2023-04-25T09:48:55;8.43;;;2.50;;
13698;SDS011;6921;53.642;9.956;2023-04-25T09:51:05;9.00;;;1.80;;
13698;SDS011;6921;53.642;9.956;2023-04-25T09:53:09;10.07;;;2.10;;
13698;SDS011;6921;53.642;9.956;2023-04-25T09:55:12;8.10;;;1.83;;
13698;SDS011;6921;53.642;9.956;2023-04-25T09:57:17;8.40;;;2.80;;
13698;SDS011;6921;53.642;9.956;2023-04-25T09:59:22;8.70;;;2.37;;
13698;SDS011;6921;53.642;9.956;2023-04-25T10:01:26;7.70;;;2.30;;
13698;SDS011;6921;53.642;9.956;2023-04-25T10:03:29;8.63;;;2.37;;
13698;SDS011;6921;53.642;9.956;2023-04-25T10:05:36;10.17;;;2.10;;
13698;SDS011;6921;53.642;9.956;2023-04-25T10:07:40;6.30;;;2.03;;
13698;SDS011;6921;53.642;9.956;2023-04-25T10:09:44;8.53;;;2.00;;
13698;SDS011;6921;53.642;9.956;2023-04-25T10:11:50;7.85;;;1.40;;
13698;SDS011;6921;53.642;9.956;2023-04-25T10:13:54;4.03;;;1.23;;
13698;SDS011;6921;53.642;9.956;2023-04-25T10:16:00;8.00;;;1.50;;
13698;SDS011;6921;53.642;9.956;2023-04-25T10:18:05;7.27;;;1.53;;
13698;SDS011;6921;53.642;9.956;2023-04-25T10:20:09;9.23;;;1.60;;
13698;SDS011;6921;53.642;9.956;2023-04-25T10:22:14;7.47;;;1.65;;
13698;SDS011;6921;53.642;9.956;2023-04-25T10:24:20;8.98;;;1.50;;
13698;SDS011;6921;53.642;9.956;2023-04-25T10:26:26;4.00;;;1.38;;
13698;SDS011;6921;53.642;9.956;2023-04-25T10:28:36;4.30;;;1.35;;
13698;SDS011;6921;53.642;9.956;2023-04-25T10:30:58;2.83;;;1.00;;
13698;SDS011;6921;53.642;9.956;2023-04-25T10:33:03;5.28;;;1.52;;
13698;SDS011;6921;53.642;9.956;2023-04-25T10:35:19;4.22;;;1.52;;
13698;SDS011;6921;53.642;9.956;2023-04-25T10:37:26;6.75;;;1.67;;
13698;SDS011;6921;53.642;9.956;2023-04-25T10:39:30;6.82;;;1.52;;
13698;SDS011;6921;53.642;9.956;2023-04-25T10:41:45;7.85;;;1.50;;
13698;SDS011;6921;53.642;9.956;2023-04-25T10:43:50;4.10;;;1.27;;
13698;SDS011;6921;53.642;9.956;2023-04-25T10:46:02;4.80;;;1.58;;
13698;SDS011;6921;53.642;9.956;2023-04-25T10:48:17;4.68;;;1.17;;
13698;SDS011;6921;53.642;9.956;2023-04-25T10:50:36;5.93;;;1.38;;
13698;SDS011;6921;53.642;9.956;2023-04-25T10:52:40;4.82;;;1.27;;
13698;SDS011;6921;53.642;9.956;2023-04-25T10:54:46;7.53;;;1.80;;
13698;SDS011;6921;53.642;9.956;2023-04-25T10:56:50;7.93;;;1.50;;
13698;SDS011;6921;53.642;9.956;2023-04-25T10:59:07;5.47;;;1.50;;
13698;SDS011;6921;53.642;9.956;2023-04-25T11:01:14;5.75;;;1.33;;
13698;SDS011;6921;53.642;9.956;2023-04-25T11:03:25;5.55;;;1.70;;
13698;SDS011;6921;53.642;9.956;2023-04-25T11:05:31;6.75;;;1.55;;
13698;SDS011;6921;53.642;9.956;2023-04-25T11:07:51;5.97;;;1.92;;
13698;SDS011;6921;53.642;9.956;2023-04-25T11:10:07;7.43;;;1.70;;
13698;SDS011;6921;53.642;9.956;2023-04-25T11:12:11;2.05;;;0.93;;
13698;SDS011;6921;53.642;9.956;2023-04-25T11:14:20;5.88;;;1.05;;
13698;SDS011;6921;53.642;9.956;2023-04-25T11:16:23;5.40;;;1.37;;
13698;SDS011;6921;53.642;9.956;2023-04-25T11:18:32;5.80;;;1.20;;
13698;SDS011;6921;53.642;9.956;2023-04-25T11:20:35;4.67;;;1.20;;
13698;SDS011;6921;53.642;9.956;2023-04-25T11:22:39;4.53;;;1.30;;
13698;SDS011;6921;53.642;9.956;2023-04-25T11:24:43;2.27;;;1.40;;
13698;SDS011;6921;53.642;9.956;2023-04-25T11:26:47;5.03;;;1.33;;
13698;SDS011;6921;53.642;9.956;2023-04-25T11:28:51;5.95;;;1.15;;
13698;SDS011;6921;53.642;9.956;2023-04-25T11:30:59;8.63;;;2.03;;
13698;SDS011;6921;53.642;9.956;2023-04-25T11:33:03;6.43;;;1.35;;
13698;SDS011;6921;53.642;9.956;2023-04-25T11:35:09;7.90;;;1.30;;
13698;SDS011;6921;53.642;9.956;2023-04-25T11:37:14;6.35;;;1.55;;
13698;SDS011;6921;53.642;9.956;2023-04-25T11:39:18;6.28;;;1.30;;
13698;SDS011;6921;53.642;9.956;2023-04-25T11:41:21;5.38;;;1.30;;
13698;SDS011;6921;53.642;9.956;2023-04-25T11:43:25;3.13;;;1.15;;
13698;SDS011;6921;53.642;9.956;2023-04-25T11:45:28;6.00;;;1.30;;
13698;SDS011;6921;53.642;9.956;2023-04-25T11:47:33;5.47;;;1.50;;
13698;SDS011;6921;53.642;9.956;2023-04-25T11:49:37;8.52;;;1.30;;
13698;SDS011;6921;53.642;9.956;2023-04-25T11:51:42;5.65;;;1.42;;
13698;SDS011;6921;53.642;9.956;2023-04-25T11:53:45;6.72;;;1.10;;
13698;SDS011;6921;53.642;9.956;2023-04-25T11:55:49;3.65;;;1.05;;
13698;SDS011;6921;53.642;9.956;2023-04-25T11:57:52;3.13;;;0.90;;
13698;SDS011;6921;53.642;9.956;2023-04-25T11:59:56;1.80;;;0.98;;
13698;SDS011;6921;53.642;9.956;2023-04-25T12:02:08;3.35;;;1.35;;
13698;SDS011;6921;53.642;9.956;2023-04-25T12:04:15;3.40;;;0.90;;
13698;SDS011;6921;53.642;9.956;2023-04-25T12:06:20;4.22;;;1.25;;
13698;SDS011;6921;53.642;9.956;2023-04-25T12:08:29;6.05;;;1.55;;
13698;SDS011;6921;53.642;9.956;2023-04-25T12:10:36;5.90;;;1.40;;
13698;SDS011;6921;53.642;9.956;2023-04-25T12:12:41;4.95;;;1.20;;
13698;SDS011;6921;53.642;9.956;2023-04-25T12:14:47;4.38;;;1.30;;
13698;SDS011;6921;53.642;9.956;2023-04-25T12:16:51;3.72;;;1.15;;
13698;SDS011;6921;53.642;9.956;2023-04-25T12:18:55;5.22;;;1.15;;
13698;SDS011;6921;53.642;9.956;2023-04-25T12:21:00;5.95;;;1.13;;
13698;SDS011;6921;53.642;9.956;2023-04-25T12:23:05;6.43;;;1.63;;
13698;SDS011;6921;53.642;9.956;2023-04-25T12:25:11;5.68;;;1.35;;
13698;SDS011;6921;53.642;9.956;2023-04-25T12:27:15;6.50;;;1.10;;
13698;SDS011;6921;53.642;9.956;2023-04-25T12:29:22;2.58;;;1.00;;
13698;SDS011;6921;53.642;9.956;2023-04-25T12:31:29;6.07;;;1.23;;
13698;SDS011;6921;53.642;9.956;2023-04-25T12:33:34;5.20;;;1.27;;
13698;SDS011;6921;53.642;9.956;2023-04-25T12:35:38;6.13;;;1.40;;
13698;SDS011;6921;53.642;9.956;2023-04-25T12:37:43;3.90;;;0.80;;
13698;SDS011;6921;53.642;9.956;2023-04-25T12:39:47;3.75;;;1.17;;
13698;SDS011;6921;53.642;9.956;2023-04-25T12:41:53;6.47;;;1.52;;
13698;SDS011;6921;53.642;9.956;2023-04-25T12:43:56;7.38;;;1.60;;
13698;SDS011;6921;53.642;9.956;2023-04-25T12:46:00;5.13;;;1.50;;